sensor_id;sensor_type;location;lat;lon;timestamp;pressure;altitude;pressure_sealevel;temperature;humidity
50087;BME280;35967;50.718;7.050;2023-12-04T00:07:22;100728.34;;;0.20;81.39
50087;BME280;35967;50.718;7.050;2023-12-04T00:17:27;100702.91;;;0.14;81.80
50087;BME280;35967;50.718;7.050;2023-12-04T00:27:30;100693.59;;;0.13;81.12
50087;BME280;35967;50.718;7.050;2023-12-04T00:37:34;100670.69;;;0.07;81.51
50087;BME280;35967;50.718;7.050;2023-12-04T00:47:40;100666.50;;;0.07;81.52
50087;BME280;35967;50.718;7.050;2023-12-04T00:57:44;100660.66;;;0.11;82.02
50087;BME280;35967;50.718;7.050;2023-12-04T01:07:47;100653.94;;;0.12;81.06
50087;BME280;35967;50.718;7.050;2023-12-04T01:17:51;100643.78;;;0.10;80.55
50087;BME280;35967;50.718;7.050;2023-12-04T01:27:55;100632.75;;;0.08;79.86
50087;BME280;35967;50.718;7.050;2023-12-04T01:37:59;100623.72;;;0.21;78.67
50087;BME280;35967;50.718;7.050;2023-12-04T01:48:03;100606.72;;;0.14;79.49
50087;BME280;35967;50.718;7.050;2023-12-04T01:58:09;100607.28;;;-0.01;80.25
50087;BME280;35967;50.718;7.050;2023-12-04T02:08:13;100587.69;;;-0.10;79.39
50087;BME280;35967;50.718;7.050;2023-12-04T02:18:18;100597.81;;;-0.10;79.24
50087;BME280;35967;50.718;7.050;2023-12-04T02:28:23;100580.91;;;-0.11;79.40
50087;BME280;35967;50.718;7.050;2023-12-04T02:38:29;100550.41;;;-0.20;79.87
50087;BME280;35967;50.718;7.050;2023-12-04T02:48:35;100548.53;;;-0.27;79.26
50087;BME280;35967;50.718;7.050;2023-12-04T02:58:38;100541.72;;;-0.33;80.56
50087;BME280;35967;50.718;7.050;2023-12-04T03:09:00;100540.03;;;-0.31;80.23
50087;BME280;35967;50.718;7.050;2023-12-04T03:19:04;100530.84;;;-0.27;80.20
50087;BME280;35967;50.718;7.050;2023-12-04T03:29:09;100514.00;;;-0.27;80.75
50087;BME280;35967;50.718;7.050;2023-12-04T03:39:13;100513.97;;;-0.28;80.03
50087;BME280;35967;50.718;7.050;2023-12-04T03:49:17;100497.84;;;-0.34;81.02
50087;BME280;35967;50.718;7.050;2023-12-04T03:59:21;100498.63;;;-0.38;81.25
50087;BME280;35967;50.718;7.050;2023-12-04T04:09:25;100489.25;;;-0.42;81.21
50087;BME280;35967;50.718;7.050;2023-12-04T04:19:28;100481.47;;;-0.51;81.68
50087;BME280;35967;50.718;7.050;2023-12-04T04:29:33;100457.09;;;-0.49;81.30
50087;BME280;35967;50.718;7.050;2023-12-04T04:39:36;100451.97;;;-0.52;82.08
50087;BME280;35967;50.718;7.050;2023-12-04T04:49:41;100447.84;;;-0.49;81.97
50087;BME280;35967;50.718;7.050;2023-12-04T04:59:45;100435.25;;;-0.45;81.55
50087;BME280;35967;50.718;7.050;2023-12-04T05:09:49;100432.72;;;-0.45;82.01
50087;BME280;35967;50.718;7.050;2023-12-04T05:19:53;100430.13;;;-0.49;81.34
50087;BME280;35967;50.718;7.050;2023-12-04T05:29:58;100419.16;;;-0.49;82.72
50087;BME280;35967;50.718;7.050;2023-12-04T05:40:01;100412.47;;;-0.45;83.46
50087;BME280;35967;50.718;7.050;2023-12-04T05:50:08;100393.75;;;-0.55;84.12
50087;BME280;35967;50.718;7.050;2023-12-04T06:00:12;100387.09;;;-0.52;84.29
50087;BME280;35967;50.718;7.050;2023-12-04T06:10:16;100366.84;;;-0.53;83.23
50087;BME280;35967;50.718;7.050;2023-12-04T06:20:20;100367.69;;;-0.53;83.68
50087;BME280;35967;50.718;7.050;2023-12-04T06:30:25;100350.78;;;-0.57;83.16
50087;BME280;35967;50.718;7.050;2023-12-04T06:40:30;100314.56;;;-0.54;83.37
50087;BME280;35967;50.718;7.050;2023-12-04T06:50:35;100313.88;;;-0.44;83.42
50087;BME280;35967;50.718;7.050;2023-12-04T07:00:39;100294.47;;;-0.46;81.85
50087;BME280;35967;50.718;7.050;2023-12-04T07:10:44;100308.88;;;-0.42;82.87
50087;BME280;35967;50.718;7.050;2023-12-04T07:20:47;100283.59;;;-0.41;80.64
50087;BME280;35967;50.718;7.050;2023-12-04T07:30:54;100268.53;;;-0.35;81.12
50087;BME280;35967;50.718;7.050;2023-12-04T07:40:58;100276.19;;;-0.30;79.92
50087;BME280;35967;50.718;7.050;2023-12-04T07:51:04;100266.13;;;-0.27;78.30
50087;BME280;35967;50.718;7.050;2023-12-04T08:01:07;100266.03;;;-0.33;78.98
50087;BME280;35967;50.718;7.050;2023-12-04T08:11:12;100260.22;;;-0.27;78.37
50087;BME280;35967;50.718;7.050;2023-12-04T08:21:16;100245.09;;;-0.23;78.72
50087;BME280;35967;50.718;7.050;2023-12-04T08:31:20;100251.84;;;-0.25;77.36
50087;BME280;35967;50.718;7.050;2023-12-04T08:41:24;100239.31;;;-0.16;77.24
50087;BME280;35967;50.718;7.050;2023-12-04T08:51:31;100222.53;;;-0.10;76.31
50087;BME280;35967;50.718;7.050;2023-12-04T09:01:37;100228.50;;;-0.04;76.57
50087;BME280;35967;50.718;7.050;2023-12-04T09:11:44;100221.13;;;0.09;75.12
50087;BME280;35967;50.718;7.050;2023-12-04T09:21:48;100189.03;;;0.06;75.23
50087;BME280;35967;50.718;7.050;2023-12-04T09:32:10;100189.13;;;0.14;74.66
50087;BME280;35967;50.718;7.050;2023-12-04T09:42:15;100159.75;;;0.25;77.92
50087;BME280;35967;50.718;7.050;2023-12-04T09:52:22;100154.56;;;0.16;74.21
50087;BME280;35967;50.718;7.050;2023-12-04T10:02:27;100140.38;;;0.29;74.73
50087;BME280;35967;50.718;7.050;2023-12-04T10:12:35;100111.75;;;0.38;75.77
50087;BME280;35967;50.718;7.050;2023-12-04T10:22:52;100097.38;;;0.32;78.17
50087;BME280;35967;50.718;7.050;2023-12-04T10:33:03;100081.31;;;0.31;79.81
50087;BME280;35967;50.718;7.050;2023-12-04T10:43:11;100064.47;;;0.32;79.91
50087;BME280;35967;50.718;7.050;2023-12-04T10:53:17;100046.75;;;0.34;79.30
50087;BME280;35967;50.718;7.050;2023-12-04T11:03:32;100036.72;;;0.44;79.89
50087;BME280;35967;50.718;7.050;2023-12-04T11:13:40;100035.84;;;0.41;81.52
50087;BME280;35967;50.718;7.050;2023-12-04T11:23:46;100017.22;;;0.33;82.34
50087;BME280;35967;50.718;7.050;2023-12-04T11:33:51;99988.56;;;0.38;84.10
50087;BME280;35967;50.718;7.050;2023-12-04T11:43:55;99974.91;;;0.19;87.98
50087;BME280;35967;50.718;7.050;2023-12-04T11:54:02;99954.66;;;0.21;90.11
50087;BME280;35967;50.718;7.050;2023-12-04T12:04:07;99944.53;;;0.22;91.95
50087;BME280;35967;50.718;7.050;2023-12-04T12:14:15;99922.59;;;0.18;95.19
50087;BME280;35967;50.718;7.050;2023-12-04T12:24:20;99909.16;;;0.25;96.68
50087;BME280;35967;50.718;7.050;2023-12-04T12:34:26;99902.38;;;0.23;97.60
50087;BME280;35967;50.718;7.050;2023-12-04T12:44:37;99883.00;;;0.28;98.13
50087;BME280;35967;50.718;7.050;2023-12-04T12:54:44;99860.22;;;0.26;99.41
50087;BME280;35967;50.718;7.050;2023-12-04T13:04:50;99837.41;;;0.25;99.95
50087;BME280;35967;50.718;7.050;2023-12-04T13:14:56;99842.47;;;0.23;100.00
50087;BME280;35967;50.718;7.050;2023-12-04T13:25:03;99820.59;;;0.33;100.00
50087;BME280;35967;50.718;7.050;2023-12-04T13:35:11;99793.63;;;0.34;100.00
50087;BME280;35967;50.718;7.050;2023-12-04T13:45:16;99776.72;;;0.33;100.00
50087;BME280;35967;50.718;7.050;2023-12-04T13:55:21;99754.75;;;0.28;100.00
50087;BME280;35967;50.718;7.050;2023-12-04T14:05:39;99730.31;;;0.35;100.00
50087;BME280;35967;50.718;7.050;2023-12-04T14:15:45;99711.78;;;0.36;100.00
50087;BME280;35967;50.718;7.050;2023-12-04T14:25:49;99705.03;;;0.32;100.00
50087;BME280;35967;50.718;7.050;2023-12-04T14:35:56;99684.78;;;0.46;100.00
50087;BME280;35967;50.718;7.050;2023-12-04T14:46:00;99680.59;;;0.48;100.00
50087;BME280;35967;50.718;7.050;2023-12-04T14:56:08;99677.19;;;0.46;100.00
50087;BME280;35967;50.718;7.050;2023-12-04T15:06:29;99661.22;;;0.55;100.00
50087;BME280;35967;50.718;7.050;2023-12-04T15:16:47;99648.53;;;0.50;100.00
50087;BME280;35967;50.718;7.050;2023-12-04T15:26:57;99623.19;;;0.42;100.00
50087;BME280;35967;50.718;7.050;2023-12-04T15:37:03;99612.22;;;0.43;100.00
50087;BME280;35967;50.718;7.050;2023-12-04T15:47:08;99602.13;;;0.51;100.00
50087;BME280;35967;50.718;7.050;2023-12-04T15:57:15;99581.00;;;0.52;100.00
50087;BME280;35967;50.718;7.050;2023-12-04T16:07:19;99577.63;;;0.56;100.00
50087;BME280;35967;50.718;7.050;2023-12-04T16:17:25;99576.81;;;0.56;100.00
50087;BME280;35967;50.718;7.050;2023-12-04T16:27:28;99562.44;;;0.61;100.00
50087;BME280;35967;50.718;7.050;2023-12-04T16:37:34;99564.97;;;0.69;100.00
50087;BME280;35967;50.718;7.050;2023-12-04T16:47:38;99556.53;;;0.68;100.00
50087;BME280;35967;50.718;7.050;2023-12-04T16:57:45;99545.56;;;0.65;100.00
50087;BME280;35967;50.718;7.050;2023-12-04T17:07:49;99533.75;;;0.67;100.00
50087;BME280;35967;50.718;7.050;2023-12-04T17:17:55;99515.19;;;0.58;100.00
50087;BME280;35967;50.718;7.050;2023-12-04T17:28:00;99507.59;;;0.49;100.00
50087;BME280;35967;50.718;7.050;2023-12-04T17:38:05;99497.44;;;0.37;100.00
50087;BME280;35967;50.718;7.050;2023-12-04T17:48:08;99471.31;;;0.35;100.00
50087;BME280;35967;50.718;7.050;2023-12-04T17:58:15;99450.19;;;0.37;100.00
50087;BME280;35967;50.718;7.050;2023-12-04T18:08:19;99451.06;;;0.44;100.00
50087;BME280;35967;50.718;7.050;2023-12-04T18:18:23;99439.22;;;0.49;100.00
50087;BME280;35967;50.718;7.050;2023-12-04T18:28:32;99429.94;;;0.56;100.00
50087;BME280;35967;50.718;7.050;2023-12-04T18:38:44;99414.72;;;0.60;100.00
50087;BME280;35967;50.718;7.050;2023-12-04T18:48:50;99418.94;;;0.68;100.00
50087;BME280;35967;50.718;7.050;2023-12-04T18:58:56;99410.50;;;0.70;100.00
50087;BME280;35967;50.718;7.050;2023-12-04T19:09:00;99407.94;;;0.76;100.00
50087;BME280;35967;50.718;7.050;2023-12-04T19:19:04;99388.50;;;0.86;100.00
50087;BME280;35967;50.718;7.050;2023-12-04T19:29:08;99368.19;;;0.96;100.00
50087;BME280;35967;50.718;7.050;2023-12-04T19:39:18;99358.06;;;0.99;100.00
50087;BME280;35967;50.718;7.050;2023-12-04T19:49:21;99327.59;;;1.06;100.00
50087;BME280;35967;50.718;7.050;2023-12-04T19:59:26;99344.47;;;1.09;100.00
50087;BME280;35967;50.718;7.050;2023-12-04T20:09:30;99314.84;;;1.22;100.00
50087;BME280;35967;50.718;7.050;2023-12-04T20:19:35;99320.75;;;1.25;100.00
50087;BME280;35967;50.718;7.050;2023-12-04T20:29:38;99314.78;;;1.33;100.00
50087;BME280;35967;50.718;7.050;2023-12-04T20:39:43;99298.69;;;1.38;100.00
50087;BME280;35967;50.718;7.050;2023-12-04T20:49:47;99297.00;;;1.44;100.00
50087;BME280;35967;50.718;7.050;2023-12-04T20:59:53;99286.81;;;1.45;100.00
50087;BME280;35967;50.718;7.050;2023-12-04T21:09:57;99274.06;;;1.53;100.00
50087;BME280;35967;50.718;7.050;2023-12-04T21:20:02;99255.47;;;1.57;100.00
50087;BME280;35967;50.718;7.050;2023-12-04T21:30:07;99245.31;;;1.57;100.00
50087;BME280;35967;50.718;7.050;2023-12-04T21:40:19;99260.47;;;1.66;100.00
50087;BME280;35967;50.718;7.050;2023-12-04T21:50:23;99243.47;;;1.73;100.00
50087;BME280;35967;50.718;7.050;2023-12-04T22:00:27;99231.59;;;1.77;100.00
50087;BME280;35967;50.718;7.050;2023-12-04T22:10:31;99220.53;;;1.85;100.00
50087;BME280;35967;50.718;7.050;2023-12-04T22:20:35;99211.13;;;1.95;100.00
50087;BME280;35967;50.718;7.050;2023-12-04T22:30:38;99216.22;;;1.94;100.00
50087;BME280;35967;50.718;7.050;2023-12-04T22:40:45;99210.22;;;2.04;100.00
50087;BME280;35967;50.718;7.050;2023-12-04T22:50:49;99215.28;;;2.02;100.00
50087;BME280;35967;50.718;7.050;2023-12-04T23:00:53;99203.38;;;2.09;100.00
50087;BME280;35967;50.718;7.050;2023-12-04T23:10:56;99194.03;;;2.13;100.00
50087;BME280;35967;50.718;7.050;2023-12-04T23:21:01;99194.03;;;2.13;100.00
50087;BME280;35967;50.718;7.050;2023-12-04T23:31:04;99193.94;;;2.22;100.00
50087;BME280;35967;50.718;7.050;2023-12-04T23:41:09;99178.59;;;2.31;100.00
50087;BME280;35967;50.718;7.050;2023-12-04T23:51:13;99164.09;;;2.38;100.00
